Time;durP1;ratioP1;P1;durP2;ratioP2;P2;SDS_P1;SDS_P2;PMS_P1;PMS_P2;Temp;Humidity;BMP_temperature;BMP_pressure;BME280_temperature;BME280_humidity;BME280_pressure;Samples;Min_cycle;Max_cycle;Signal;HPM_P1;HPM_P2
2022/02/12 00:01:01;;;;;;;;;;;19.20;34.90;;;;;;5096688;28;19926;-64
2022/02/12 00:03:26;;;;;;;;;;;19.20;35.00;;;;;;5096800;28;19951;-64
2022/02/12 00:05:52;;;;;;;;;;;19.20;34.90;;;;;;5096880;28;19912;-64
2022/02/12 00:08:17;;;;;;;;;;;19.20;35.00;;;;;;5096751;28;20346;-64
2022/02/12 00:10:43;;;;;;;;;;;19.20;34.90;;;;;;5078522;28;20365;-64
2022/02/12 00:13:11;;;;;;;;;;;19.20;34.90;;;;;;5096699;28;19908;-64
2022/02/12 00:15:37;;;;;;;;;;;19.20;34.90;;;;;;5096764;28;19915;-64
2022/02/12 00:18:03;;;;;;;;;;;19.20;34.80;;;;;;5096655;28;20248;-64
2022/02/12 00:20:29;;;;;;;;;;;19.20;34.80;;;;;;5096560;28;19912;-64
2022/02/12 00:22:54;;;;;;;;;;;19.20;34.90;;;;;;5096525;28;19912;-65
2022/02/12 00:25:20;;;;;;;;;;;19.20;34.90;;;;;;5078365;28;19912;-65
2022/02/12 00:27:45;;;;;;;;;;;19.20;34.90;;;;;;5096454;28;20057;-64
2022/02/12 00:30:11;;;;;;;;;;;19.20;34.80;;;;;;5078248;28;19916;-64
2022/02/12 00:32:36;;;;;;;;;;;19.20;34.80;;;;;;5096376;28;19908;-64
2022/02/12 00:35:02;;;;;;;;;;;19.20;34.80;;;;;;5096398;28;19922;-64
2022/02/12 00:37:29;;;;;;;;;;;19.20;34.80;;;;;;5096259;28;20306;-63
2022/02/12 00:39:54;;;;;;;;;;;19.20;34.80;;;;;;5096217;28;19908;-64
2022/02/12 00:42:22;;;;;;;;;;;19.20;34.70;;;;;;5077984;28;19958;-64
2022/02/12 00:44:48;;;;;;;;;;;19.20;34.70;;;;;;5096725;28;19915;-64
2022/02/12 00:47:13;;;;;;;;;;;19.20;34.70;;;;;;5096178;28;19916;-64
2022/02/12 00:49:39;;;;;;;;;;;19.20;34.70;;;;;;5096112;28;19908;-64
2022/02/12 00:52:04;;;;;;;;;;;19.10;34.70;;;;;;5078120;28;19908;-64
2022/02/12 00:54:32;;;;;;;;;;;19.10;34.80;;;;;;5096022;28;19916;-65
2022/02/12 00:56:58;;;;;;;;;;;19.10;34.70;;;;;;5096013;28;20371;-64
2022/02/12 00:59:23;;;;;;;;;;;19.10;34.70;;;;;;5077847;28;19947;-64
2022/02/12 01:01:49;;;;;;;;;;;19.10;34.70;;;;;;5095587;28;19967;-64
2022/02/12 01:04:15;;;;;;;;;;;19.10;34.70;;;;;;5095848;28;19908;-64
2022/02/12 01:06:40;;;;;;;;;;;19.10;34.70;;;;;;5095780;28;19912;-64
2022/02/12 01:09:06;;;;;;;;;;;19.10;34.60;;;;;;5095696;28;20066;-64
2022/02/12 01:11:31;;;;;;;;;;;19.10;34.80;;;;;;5095041;28;19959;-64
2022/02/12 01:13:57;;;;;;;;;;;19.10;34.70;;;;;;5095586;28;19908;-64
2022/02/12 01:16:22;;;;;;;;;;;19.10;34.70;;;;;;5095877;28;19946;-64
2022/02/12 01:18:48;;;;;;;;;;;19.10;34.60;;;;;;5095636;28;19908;-64
2022/02/12 01:21:13;;;;;;;;;;;19.10;34.70;;;;;;5095303;28;19916;-64
2022/02/12 01:23:39;;;;;;;;;;;19.10;34.60;;;;;;5095390;28;19908;-64
2022/02/12 01:26:04;;;;;;;;;;;19.10;34.60;;;;;;5095334;28;19908;-64
2022/02/12 01:28:30;;;;;;;;;;;19.10;34.50;;;;;;5095318;28;19915;-64
2022/02/12 01:30:55;;;;;;;;;;;19.10;34.60;;;;;;5095258;28;20367;-65
2022/02/12 01:33:21;;;;;;;;;;;19.10;34.70;;;;;;5076988;28;19908;-64
2022/02/12 01:35:46;;;;;;;;;;;19.00;34.60;;;;;;5095046;28;20296;-64
2022/02/12 01:38:12;;;;;;;;;;;19.10;34.60;;;;;;5095291;28;19908;-64
2022/02/12 01:40:37;;;;;;;;;;;19.10;34.40;;;;;;5094905;28;19916;-64
2022/02/12 01:43:06;;;;;;;;;;;19.00;34.50;;;;;;5094977;28;19926;-64
2022/02/12 01:45:33;;;;;;;;;;;19.00;34.50;;;;;;5095269;28;19912;-64
2022/02/12 01:48:01;;;;;;;;;;;19.00;34.40;;;;;;5094863;28;19915;-64
2022/02/12 01:50:27;;;;;;;;;;;19.00;34.40;;;;;;5094827;28;19986;-64
2022/02/12 01:52:52;;;;;;;;;;;19.00;34.40;;;;;;5076612;28;20364;-64
2022/02/12 01:55:19;;;;;;;;;;;19.10;34.40;;;;;;5076617;28;19908;-64
2022/02/12 01:57:44;;;;;;;;;;;19.00;34.40;;;;;;5094714;28;19908;-64
2022/02/12 02:00:11;;;;;;;;;;;19.00;34.40;;;;;;5094405;28;19908;-65
2022/02/12 02:02:37;;;;;;;;;;;19.00;34.40;;;;;;5094519;28;19908;-64
2022/02/12 02:05:04;;;;;;;;;;;19.00;34.30;;;;;;5094464;28;19909;-64
2022/02/12 02:07:29;;;;;;;;;;;19.00;34.40;;;;;;5094356;28;20003;-64
2022/02/12 02:09:55;;;;;;;;;;;19.00;34.40;;;;;;5094370;28;19947;-63
2022/02/12 02:12:20;;;;;;;;;;;19.00;34.40;;;;;;5094620;28;20011;-64
2022/02/12 02:14:46;;;;;;;;;;;19.00;34.40;;;;;;5094203;28;19909;-64
2022/02/12 02:17:11;;;;;;;;;;;19.00;34.40;;;;;;5094181;28;19908;-64
2022/02/12 02:19:37;;;;;;;;;;;19.00;34.30;;;;;;5094147;28;19908;-64
2022/02/12 02:22:03;;;;;;;;;;;19.00;34.30;;;;;;5094160;28;19979;-64
2022/02/12 02:24:29;;;;;;;;;;;18.90;34.30;;;;;;5094063;28;19984;-63
2022/02/12 02:27:05;;;;;;;;;;;18.90;34.40;;;;;;5093968;28;19908;-64
2022/02/12 02:29:30;;;;;;;;;;;18.90;34.30;;;;;;5094008;28;19915;-64
2022/02/12 02:31:56;;;;;;;;;;;18.90;34.40;;;;;;5093999;28;19914;-64
2022/02/12 02:34:21;;;;;;;;;;;18.90;34.40;;;;;;5094155;28;19908;-64
2022/02/12 02:36:47;;;;;;;;;;;18.90;34.20;;;;;;5093956;28;19943;-64
2022/02/12 02:39:13;;;;;;;;;;;19.00;34.20;;;;;;5075880;28;19916;-64
2022/02/12 02:41:38;;;;;;;;;;;19.00;34.30;;;;;;5093824;28;19978;-64
2022/02/12 02:44:03;;;;;;;;;;;19.00;34.30;;;;;;5093952;28;20317;-64
2022/02/12 02:46:29;;;;;;;;;;;18.90;34.20;;;;;;5093981;28;20365;-64
2022/02/12 02:48:54;;;;;;;;;;;19.00;34.20;;;;;;5093778;28;19909;-64
2022/02/12 02:56:48;;;;;;;;;;;18.90;34.10;;;;;;5093998;28;19918;-64
2022/02/12 02:59:13;;;;;;;;;;;18.90;34.20;;;;;;5093519;28;19912;-64
2022/02/12 03:01:39;;;;;;;;;;;18.90;34.10;;;;;;5075070;28;20026;-64
2022/02/12 03:04:04;;;;;;;;;;;18.90;34.20;;;;;;5093267;28;19908;-64
2022/02/12 03:06:32;;;;;;;;;;;18.90;34.20;;;;;;5092372;28;22339;-64
2022/02/12 03:08:58;;;;;;;;;;;18.90;34.20;;;;;;5075047;28;19999;-64
2022/02/12 03:11:23;;;;;;;;;;;18.90;34.20;;;;;;5075326;28;19911;-64
2022/02/12 03:13:50;;;;;;;;;;;18.90;34.10;;;;;;5092987;28;19908;-64
2022/02/12 03:16:16;;;;;;;;;;;18.90;34.10;;;;;;5093091;28;20451;-64
2022/02/12 03:18:43;;;;;;;;;;;18.90;34.10;;;;;;5093028;28;19948;-64
2022/02/12 03:21:09;;;;;;;;;;;18.90;34.00;;;;;;5093085;28;19926;-64
2022/02/12 03:23:34;;;;;;;;;;;18.90;34.00;;;;;;5093359;28;19912;-64
2022/02/12 03:26:00;;;;;;;;;;;18.90;34.10;;;;;;5092891;28;19931;-64
2022/02/12 03:28:25;;;;;;;;;;;18.90;34.10;;;;;;5092961;28;19915;-64
2022/02/12 03:30:51;;;;;;;;;;;18.90;34.10;;;;;;5093233;28;19908;-64
2022/02/12 03:33:17;;;;;;;;;;;18.90;34.00;;;;;;5093282;28;19912;-64
2022/02/12 03:35:43;;;;;;;;;;;18.80;34.00;;;;;;5097325;28;19908;-64
2022/02/12 03:38:15;;;;;;;;;;;18.90;34.10;;;;;;5097454;28;20441;-64
2022/02/12 03:40:42;;;;;;;;;;;18.90;34.10;;;;;;5097660;28;19970;-64
2022/02/12 03:43:08;;;;;;;;;;;18.80;34.10;;;;;;5097439;28;19908;-64
2022/02/12 03:45:33;;;;;;;;;;;18.80;34.00;;;;;;5097439;28;19912;-64
2022/02/12 03:47:59;;;;;;;;;;;18.80;34.10;;;;;;5097405;28;20003;-64
2022/02/12 03:50:27;;;;;;;;;;;18.80;34.10;;;;;;5097271;28;19931;-64
2022/02/12 03:52:52;;;;;;;;;;;18.80;34.10;;;;;;5097276;28;19948;-64
2022/02/12 03:55:18;;;;;;;;;;;18.80;34.10;;;;;;5097258;28;20303;-64
2022/02/12 03:57:44;;;;;;;;;;;18.80;34.10;;;;;;5097266;28;19912;-64
2022/02/12 04:00:11;;;;;;;;;;;18.80;34.10;;;;;;5097109;28;19909;-64
2022/02/12 04:02:37;;;;;;;;;;;18.80;33.90;;;;;;5097187;28;19912;-64
2022/02/12 04:05:03;;;;;;;;;;;18.80;34.10;;;;;;5078826;28;19915;-65
2022/02/12 04:07:28;;;;;;;;;;;18.80;34.00;;;;;;5097252;28;19908;-65
2022/02/12 04:09:54;;;;;;;;;;;18.80;33.90;;;;;;5096748;28;20065;-64
2022/02/12 04:12:19;;;;;;;;;;;18.80;34.00;;;;;;5096772;28;19908;-64
2022/02/12 04:14:44;;;;;;;;;;;18.80;34.00;;;;;;5096815;28;19915;-64
2022/02/12 04:17:10;;;;;;;;;;;18.80;33.90;;;;;;5096762;28;20364;-65
2022/02/12 04:19:35;;;;;;;;;;;18.80;33.90;;;;;;5096602;28;20280;-65
2022/02/12 04:22:01;;;;;;;;;;;18.80;33.90;;;;;;5096538;28;19916;-64
2022/02/12 04:24:26;;;;;;;;;;;18.80;34.00;;;;;;5096501;28;19964;-64
2022/02/12 04:26:52;;;;;;;;;;;18.80;34.00;;;;;;5096460;28;19908;-65
2022/02/12 04:29:17;;;;;;;;;;;18.80;33.90;;;;;;5096493;28;20355;-64
2022/02/12 04:31:43;;;;;;;;;;;18.80;33.80;;;;;;5078338;28;19908;-64
2022/02/12 04:34:08;;;;;;;;;;;18.80;33.80;;;;;;5096713;28;19966;-64
2022/02/12 04:36:34;;;;;;;;;;;18.80;33.90;;;;;;5096243;28;20076;-64
2022/02/12 04:39:00;;;;;;;;;;;18.80;33.70;;;;;;5096048;28;19908;-64
2022/02/12 04:41:27;;;;;;;;;;;18.80;33.80;;;;;;5096044;28;19963;-64
2022/02/12 04:43:52;;;;;;;;;;;18.80;33.80;;;;;;5095991;28;19916;-64
2022/02/12 04:46:18;;;;;;;;;;;18.80;33.90;;;;;;5094499;28;19908;-64
2022/02/12 04:48:48;;;;;;;;;;;18.80;33.80;;;;;;5095706;28;20268;-64
2022/02/12 04:51:17;;;;;;;;;;;18.80;33.70;;;;;;5095743;28;19918;-64
2022/02/12 04:53:43;;;;;;;;;;;18.80;33.70;;;;;;5095604;28;19908;-64
2022/02/12 04:56:08;;;;;;;;;;;18.80;33.60;;;;;;5077382;28;19961;-65
2022/02/12 04:58:34;;;;;;;;;;;18.70;33.80;;;;;;5095499;28;19916;-64
2022/02/12 05:00:59;;;;;;;;;;;18.80;33.70;;;;;;5095225;28;19963;-64
2022/02/12 05:03:25;;;;;;;;;;;18.80;33.70;;;;;;5077317;28;19908;-64
2022/02/12 05:05:50;;;;;;;;;;;18.70;33.60;;;;;;5095286;28;19908;-64
2022/02/12 05:08:16;;;;;;;;;;;18.80;33.60;;;;;;5095303;28;19908;-64
2022/02/12 05:10:41;;;;;;;;;;;18.70;33.70;;;;;;5095295;28;19915;-64
2022/02/12 05:13:06;;;;;;;;;;;18.80;33.70;;;;;;5095156;28;19908;-64
2022/02/12 05:15:32;;;;;;;;;;;18.80;33.70;;;;;;5095065;28;19908;-64
2022/02/12 05:17:58;;;;;;;;;;;18.80;33.50;;;;;;5076864;28;20343;-64
2022/02/12 05:20:23;;;;;;;;;;;18.80;33.60;;;;;;5076775;28;19943;-65
2022/02/12 05:22:49;;;;;;;;;;;18.80;33.70;;;;;;5076785;28;19919;-64
2022/02/12 05:25:14;;;;;;;;;;;18.80;33.40;;;;;;5095231;28;19908;-64
2022/02/12 05:27:39;;;;;;;;;;;18.90;33.30;;;;;;5095212;28;19931;-64
2022/02/12 05:30:05;;;;;;;;;;;18.90;33.40;;;;;;5095334;28;19908;-64
2022/02/12 05:32:31;;;;;;;;;;;18.90;33.20;;;;;;5076860;28;20336;-64
2022/02/12 05:34:58;;;;;;;;;;;18.90;33.20;;;;;;5094934;28;20014;-64
2022/02/12 05:37:23;;;;;;;;;;;18.90;33.30;;;;;;5095033;28;19953;-64
2022/02/12 05:39:49;;;;;;;;;;;18.90;33.40;;;;;;5095338;28;19908;-65
2022/02/12 05:42:14;;;;;;;;;;;19.00;33.30;;;;;;5076865;28;20367;-64
2022/02/12 05:44:40;;;;;;;;;;;19.00;33.10;;;;;;5095009;28;19915;-64
2022/02/12 05:47:05;;;;;;;;;;;18.90;33.30;;;;;;5094982;28;20087;-64
2022/02/12 05:49:31;;;;;;;;;;;19.00;32.90;;;;;;5094874;28;19908;-64
2022/02/12 05:51:56;;;;;;;;;;;19.00;33.20;;;;;;5076626;28;20287;-63
2022/02/12 05:54:22;;;;;;;;;;;19.00;33.10;;;;;;5094436;28;19909;-64
2022/02/12 05:56:47;;;;;;;;;;;19.00;33.20;;;;;;5094333;28;19953;-64
2022/02/12 05:59:13;;;;;;;;;;;19.00;33.00;;;;;;5094700;28;20367;-64
2022/02/12 06:01:39;;;;;;;;;;;19.00;33.10;;;;;;5094292;28;19920;-64
2022/02/12 06:04:05;;;;;;;;;;;19.00;33.10;;;;;;5076335;28;20352;-64
2022/02/12 06:06:30;;;;;;;;;;;19.00;33.10;;;;;;5094715;28;19927;-63
2022/02/12 06:08:56;;;;;;;;;;;19.00;33.10;;;;;;5094477;28;20402;-64
2022/02/12 06:11:21;;;;;;;;;;;19.10;33.00;;;;;;5094677;28;19908;-64
2022/02/12 06:13:51;;;;;;;;;;;19.10;33.00;;;;;;5094369;28;19931;-64
2022/02/12 06:16:21;;;;;;;;;;;19.00;32.80;;;;;;5094615;28;20287;-64
2022/02/12 06:18:47;;;;;;;;;;;19.10;32.90;;;;;;5094125;28;20325;-63
2022/02/12 06:21:12;;;;;;;;;;;19.10;32.90;;;;;;5093706;28;19912;-64
2022/02/12 06:23:38;;;;;;;;;;;19.10;32.90;;;;;;5094073;28;19915;-64
2022/02/12 06:26:04;;;;;;;;;;;19.10;32.90;;;;;;5093758;28;19956;-63
2022/02/12 06:28:29;;;;;;;;;;;19.10;33.20;;;;;;5094135;28;19915;-63
2022/02/12 06:30:55;;;;;;;;;;;19.10;32.90;;;;;;5093864;28;19909;-64
2022/02/12 06:33:21;;;;;;;;;;;19.10;33.10;;;;;;5093738;28;20034;-63
2022/02/12 06:35:46;;;;;;;;;;;19.10;32.90;;;;;;5093738;28;19915;-63
2022/02/12 06:38:12;;;;;;;;;;;19.20;33.00;;;;;;5093999;28;19908;-63
2022/02/12 06:40:37;;;;;;;;;;;19.10;32.80;;;;;;5075760;28;19919;-64
2022/02/12 06:43:03;;;;;;;;;;;19.20;32.80;;;;;;5094006;28;20032;-64
2022/02/12 06:45:29;;;;;;;;;;;19.10;33.00;;;;;;5093936;28;19908;-63
2022/02/12 06:47:55;;;;;;;;;;;19.20;32.80;;;;;;5075741;28;20355;-64
2022/02/12 06:50:21;;;;;;;;;;;19.10;32.90;;;;;;5093727;28;20244;-64
2022/02/12 06:52:46;;;;;;;;;;;19.20;32.80;;;;;;5093848;28;19909;-63
2022/02/12 06:55:12;;;;;;;;;;;19.20;32.70;;;;;;5093678;28;19930;-63
2022/02/12 06:57:37;;;;;;;;;;;19.20;32.80;;;;;;5075667;28;19958;-63
2022/02/12 07:00:04;;;;;;;;;;;19.20;32.70;;;;;;5093500;28;19915;-63
2022/02/12 07:02:30;;;;;;;;;;;19.20;32.90;;;;;;5093534;28;19973;-63
2022/02/12 07:04:57;;;;;;;;;;;19.20;32.70;;;;;;5093611;28;20322;-63
2022/02/12 07:07:23;;;;;;;;;;;19.20;32.80;;;;;;5093627;28;20049;-63
2022/02/12 07:09:48;;;;;;;;;;;19.20;32.80;;;;;;5092895;28;19965;-64
2022/02/12 07:12:14;;;;;;;;;;;19.20;32.50;;;;;;5093425;28;20394;-63
2022/02/12 07:14:39;;;;;;;;;;;19.20;32.90;;;;;;5093585;28;20034;-64
2022/02/12 07:17:05;;;;;;;;;;;19.20;32.60;;;;;;5093337;28;19908;-64
2022/02/12 07:19:30;;;;;;;;;;;19.20;32.80;;;;;;5093280;28;19998;-63
2022/02/12 07:21:55;;;;;;;;;;;19.30;32.70;;;;;;5093234;28;20011;-63
2022/02/12 07:24:21;;;;;;;;;;;19.20;32.70;;;;;;5093578;28;19931;-64
2022/02/12 07:26:46;;;;;;;;;;;19.30;32.60;;;;;;5093621;28;20351;-63
2022/02/12 07:29:12;;;;;;;;;;;19.30;32.90;;;;;;5093328;28;20384;-64
2022/02/12 07:31:37;;;;;;;;;;;19.30;32.90;;;;;;5093349;28;19958;-63
2022/02/12 07:34:03;;;;;;;;;;;19.30;32.60;;;;;;5093433;28;19908;-63
2022/02/12 07:36:28;;;;;;;;;;;19.30;32.70;;;;;;5093440;28;19908;-63
2022/02/12 07:38:53;;;;;;;;;;;19.30;32.70;;;;;;5093178;28;19912;-63
2022/02/12 07:41:19;;;;;;;;;;;19.30;32.60;;;;;;5093353;28;19920;-63
2022/02/12 07:43:44;;;;;;;;;;;19.30;32.60;;;;;;5093187;28;20364;-64
2022/02/12 07:46:11;;;;;;;;;;;19.30;32.60;;;;;;5093272;28;20379;-64
2022/02/12 07:48:36;;;;;;;;;;;19.40;32.50;;;;;;5092951;28;19938;-63
2022/02/12 07:51:02;;;;;;;;;;;19.30;32.70;;;;;;5074912;28;19908;-64
2022/02/12 07:53:27;;;;;;;;;;;19.40;32.60;;;;;;5093074;28;19908;-64
2022/02/12 07:55:53;;;;;;;;;;;19.40;32.50;;;;;;5058316;28;19908;-64
2022/02/12 07:58:20;;;;;;;;;;;19.40;32.50;;;;;;5093077;28;20335;-63
2022/02/12 08:00:46;;;;;;;;;;;19.40;32.60;;;;;;5092701;28;19920;-63
2022/02/12 08:03:11;;;;;;;;;;;19.40;32.50;;;;;;5093048;28;19930;-63
2022/02/12 08:05:37;;;;;;;;;;;19.50;32.40;;;;;;5092879;28;19908;-64
2022/02/12 08:08:03;;;;;;;;;;;19.50;32.40;;;;;;5092997;28;19908;-63
2022/02/12 08:13:13;;;;;;;;;;;19.40;32.50;;;;;;5093214;28;19949;-63
2022/02/12 08:15:38;;;;;;;;;;;19.50;32.60;;;;;;5092798;28;20041;-64
2022/02/12 08:18:04;;;;;;;;;;;19.50;32.50;;;;;;5074554;28;20395;-63
2022/02/12 08:20:29;;;;;;;;;;;19.50;32.50;;;;;;5094757;28;20279;-63
2022/02/12 08:22:55;;;;;;;;;;;19.50;32.50;;;;;;5096518;28;20029;-63
2022/02/12 08:25:20;;;;;;;;;;;19.50;32.40;;;;;;5078207;28;19908;-63
2022/02/12 08:27:46;;;;;;;;;;;19.50;32.60;;;;;;5096482;28;19908;-63
2022/02/12 08:30:11;;;;;;;;;;;19.50;32.50;;;;;;5096562;28;19908;-64
2022/02/12 08:32:41;;;;;;;;;;;19.50;32.50;;;;;;5096451;28;20488;-63
2022/02/12 08:35:10;;;;;;;;;;;19.50;32.50;;;;;;5095919;28;19957;-64
2022/02/12 08:37:39;;;;;;;;;;;19.50;32.50;;;;;;5096138;28;20008;-63
2022/02/12 08:40:09;;;;;;;;;;;19.50;32.40;;;;;;5096101;28;19915;-63
2022/02/12 08:42:35;;;;;;;;;;;19.50;32.50;;;;;;5095978;28;19920;-63
2022/02/12 08:45:02;;;;;;;;;;;19.50;32.50;;;;;;5096317;28;20002;-63
2022/02/12 08:47:28;;;;;;;;;;;19.50;32.50;;;;;;5096095;28;19908;-64
2022/02/12 08:49:53;;;;;;;;;;;19.50;32.50;;;;;;5096584;28;20276;-63
2022/02/12 08:52:19;;;;;;;;;;;19.50;32.50;;;;;;5095992;28;19908;-64
2022/02/12 08:54:44;;;;;;;;;;;19.50;32.40;;;;;;5095832;28;19966;-63
2022/02/12 08:57:09;;;;;;;;;;;19.50;32.40;;;;;;5095829;28;19908;-64
2022/02/12 08:59:35;;;;;;;;;;;19.50;32.50;;;;;;5095596;28;20121;-64
2022/02/12 09:02:00;;;;;;;;;;;19.50;32.40;;;;;;5095446;28;19920;-64
2022/02/12 09:04:26;;;;;;;;;;;19.60;32.50;;;;;;5095546;28;19908;-63
2022/02/12 09:06:51;;;;;;;;;;;19.50;32.50;;;;;;5077019;28;19908;-64
2022/02/12 09:09:17;;;;;;;;;;;19.60;32.40;;;;;;5095259;28;20037;-63
2022/02/12 09:11:43;;;;;;;;;;;19.60;32.50;;;;;;5095287;28;19943;-63
2022/02/12 09:14:09;;;;;;;;;;;19.60;32.50;;;;;;5095194;28;20348;-63
2022/02/12 09:16:35;;;;;;;;;;;19.60;32.60;;;;;;5095308;28;20435;-64
2022/02/12 09:19:00;;;;;;;;;;;19.60;32.50;;;;;;5095614;28;19978;-64
2022/02/12 09:21:26;;;;;;;;;;;19.60;32.20;;;;;;5095346;28;19916;-63
2022/02/12 09:23:51;;;;;;;;;;;19.60;32.60;;;;;;5077247;28;19908;-64
2022/02/12 09:26:20;;;;;;;;;;;19.60;32.60;;;;;;5095335;28;19914;-63
2022/02/12 09:28:46;;;;;;;;;;;19.70;32.60;;;;;;5095230;28;19912;-63
2022/02/12 09:31:11;;;;;;;;;;;19.70;32.50;;;;;;5094679;28;20332;-64
2022/02/12 09:33:37;;;;;;;;;;;19.70;32.60;;;;;;5095327;28;20368;-64
2022/02/12 09:36:03;;;;;;;;;;;19.70;32.40;;;;;;5095291;28;19923;-64
2022/02/12 09:38:28;;;;;;;;;;;19.70;32.50;;;;;;5094869;28;19916;-63
2022/02/12 09:40:55;;;;;;;;;;;19.70;32.60;;;;;;5094804;28;19963;-63
2022/02/12 09:43:22;;;;;;;;;;;19.70;32.60;;;;;;5094831;28;20000;-63
2022/02/12 09:45:56;;;;;;;;;;;19.70;32.60;;;;;;5095053;28;19909;-63
2022/02/12 09:48:22;;;;;;;;;;;19.80;32.50;;;;;;5094825;28;20436;-64
2022/02/12 09:50:48;;;;;;;;;;;19.80;32.60;;;;;;5094831;28;19909;-63
2022/02/12 09:53:13;;;;;;;;;;;19.80;32.70;;;;;;5094637;28;20037;-64
2022/02/12 09:55:38;;;;;;;;;;;19.70;32.60;;;;;;5076480;28;19985;-63
2022/02/12 09:58:06;;;;;;;;;;;19.80;32.90;;;;;;5094841;28;19947;-64
2022/02/12 10:00:32;;;;;;;;;;;19.80;32.70;;;;;;5094391;28;20015;-63
2022/02/12 10:02:57;;;;;;;;;;;19.70;32.60;;;;;;5094782;28;19939;-64
2022/02/12 10:05:26;;;;;;;;;;;19.80;32.70;;;;;;5076402;28;20286;-64
2022/02/12 10:08:07;;;;;;;;;;;19.80;32.60;;;;;;5094499;28;19998;-63
2022/02/12 10:10:35;;;;;;;;;;;19.80;32.60;;;;;;5094485;28;19916;-64
2022/02/12 10:13:09;;;;;;;;;;;19.80;32.70;;;;;;5094300;28;19916;-63
2022/02/12 10:15:35;;;;;;;;;;;19.80;32.80;;;;;;5094575;28;19908;-63
2022/02/12 10:18:01;;;;;;;;;;;19.80;32.60;;;;;;5094192;28;19908;-64
2022/02/12 10:20:34;;;;;;;;;;;19.80;32.90;;;;;;5094076;28;20363;-63
2022/02/12 10:23:17;;;;;;;;;;;19.80;32.80;;;;;;5094119;28;20309;-63
2022/02/12 10:25:44;;;;;;;;;;;19.90;32.90;;;;;;5093925;28;19912;-64
2022/02/12 10:28:10;;;;;;;;;;;19.80;32.70;;;;;;5093892;28;19908;-63
2022/02/12 10:30:36;;;;;;;;;;;19.80;32.90;;;;;;5093880;28;19909;-63
2022/02/12 10:33:04;;;;;;;;;;;19.90;32.70;;;;;;5093773;28;20006;-63
2022/02/12 10:35:30;;;;;;;;;;;19.80;32.80;;;;;;5093596;28;19931;-63
2022/02/12 10:37:58;;;;;;;;;;;19.80;32.80;;;;;;5093799;28;20367;-63
2022/02/12 10:40:23;;;;;;;;;;;19.80;32.60;;;;;;5093659;28;19958;-63
2022/02/12 10:42:50;;;;;;;;;;;19.80;32.80;;;;;;5074919;28;20016;-63
2022/02/12 10:45:19;;;;;;;;;;;19.80;32.70;;;;;;5093274;28;19934;-65
2022/02/12 10:47:44;;;;;;;;;;;19.80;32.80;;;;;;5075354;28;20342;-63
2022/02/12 10:50:10;;;;;;;;;;;19.80;32.80;;;;;;5093715;28;19908;-64
2022/02/12 10:52:38;;;;;;;;;;;19.90;32.80;;;;;;5093636;28;20261;-64
2022/02/12 10:55:04;;;;;;;;;;;19.90;32.90;;;;;;5093444;28;19912;-63
2022/02/12 10:57:36;;;;;;;;;;;20.00;32.80;;;;;;5093485;28;19949;-63
2022/02/12 11:00:02;;;;;;;;;;;20.00;32.80;;;;;;5093403;28;19908;-63
2022/02/12 11:02:28;;;;;;;;;;;20.00;32.70;;;;;;5093385;28;20023;-63
2022/02/12 11:04:57;;;;;;;;;;;20.10;32.70;;;;;;5093511;28;19915;-63
2022/02/12 11:07:23;;;;;;;;;;;20.10;32.60;;;;;;5092974;28;20356;-64
2022/02/12 11:09:51;;;;;;;;;;;20.20;32.60;;;;;;5074916;28;19908;-63
2022/02/12 11:12:17;;;;;;;;;;;20.20;32.60;;;;;;5093193;28;19908;-63
2022/02/12 11:14:43;;;;;;;;;;;20.30;32.50;;;;;;5075498;28;19915;-64
2022/02/12 11:17:26;;;;;;;;;;;20.30;32.50;;;;;;5093644;28;19908;-63
2022/02/12 11:19:52;;;;;;;;;;;20.30;32.50;;;;;;5093336;28;19908;-64
2022/02/12 11:22:18;;;;;;;;;;;20.40;32.40;;;;;;5093113;28;20003;-63
2022/02/12 11:24:44;;;;;;;;;;;20.40;32.40;;;;;;5093129;28;20028;-63
2022/02/12 11:27:17;;;;;;;;;;;20.40;32.40;;;;;;5093191;28;19908;-63
2022/02/12 11:29:44;;;;;;;;;;;20.40;32.40;;;;;;5092943;28;20375;-63
2022/02/12 11:32:11;;;;;;;;;;;20.40;32.40;;;;;;5092733;28;20374;-64
2022/02/12 11:34:40;;;;;;;;;;;20.50;32.40;;;;;;5092966;28;19915;-64
2022/02/12 11:37:15;;;;;;;;;;;20.50;32.40;;;;;;5093245;28;19916;-63
2022/02/12 11:39:40;;;;;;;;;;;20.50;32.40;;;;;;5093107;28;20351;-64
2022/02/12 11:42:10;;;;;;;;;;;20.50;32.40;;;;;;5092802;28;19916;-63
2022/02/12 11:44:41;;;;;;;;;;;20.50;32.30;;;;;;5074843;28;19915;-64
2022/02/12 11:47:07;;;;;;;;;;;20.50;32.40;;;;;;5093064;28;19962;-64
2022/02/12 11:49:36;;;;;;;;;;;20.60;32.40;;;;;;5093036;28;19916;-63
2022/02/12 11:52:31;;;;;;;;;;;20.60;32.30;;;;;;5093006;28;19908;-64
2022/02/12 11:54:57;;;;;;;;;;;20.60;32.20;;;;;;5075920;28;20330;-64
2022/02/12 11:57:23;;;;;;;;;;;20.70;32.20;;;;;;5078895;28;19908;-63
2022/02/12 11:59:48;;;;;;;;;;;20.70;32.10;;;;;;5097146;28;19954;-63
2022/02/12 12:02:32;;;;;;;;;;;20.70;32.10;;;;;;5096826;28;19924;-64
2022/02/12 12:05:30;;;;;;;;;;;20.70;32.00;;;;;;5096746;28;19908;-63
2022/02/12 12:08:20;;;;;;;;;;;20.60;32.00;;;;;;5034530;28;20268;-63
2022/02/12 12:10:51;;;;;;;;;;;20.60;32.20;;;;;;5095834;28;19912;-64
2022/02/12 12:13:17;;;;;;;;;;;20.50;32.30;;;;;;5096560;28;19908;-63
2022/02/12 12:15:49;;;;;;;;;;;20.50;32.40;;;;;;5096428;28;19911;-64
2022/02/12 12:18:15;;;;;;;;;;;20.50;32.40;;;;;;5096446;28;20368;-63
2022/02/12 12:20:42;;;;;;;;;;;20.40;32.40;;;;;;5096511;28;19923;-64
2022/02/12 12:23:12;;;;;;;;;;;20.40;32.50;;;;;;5078332;28;19915;-64
2022/02/12 12:25:54;;;;;;;;;;;20.30;32.60;;;;;;5096410;28;19908;-64
2022/02/12 12:28:40;;;;;;;;;;;20.30;32.60;;;;;;5096505;28;20371;-64
2022/02/12 12:31:10;;;;;;;;;;;20.30;32.60;;;;;;5097014;28;19915;-64
2022/02/12 12:33:42;;;;;;;;;;;20.20;32.70;;;;;;5096808;28;20003;-63
2022/02/12 12:36:08;;;;;;;;;;;20.20;32.70;;;;;;5096226;28;19908;-63
2022/02/12 12:38:35;;;;;;;;;;;20.20;32.70;;;;;;5096234;28;19954;-63
2022/02/12 12:41:18;;;;;;;;;;;20.20;32.70;;;;;;5096082;28;19974;-63
2022/02/12 12:43:44;;;;;;;;;;;20.20;32.70;;;;;;5096245;28;20030;-63
2022/02/12 12:46:09;;;;;;;;;;;20.20;32.70;;;;;;5096114;28;19955;-63
2022/02/12 12:48:34;;;;;;;;;;;20.20;32.60;;;;;;5095996;28;19909;-63
2022/02/12 12:51:00;;;;;;;;;;;20.20;32.70;;;;;;5096012;28;19915;-64
2022/02/12 12:53:25;;;;;;;;;;;20.20;32.70;;;;;;5078091;28;19908;-63
2022/02/12 12:55:51;;;;;;;;;;;20.20;32.60;;;;;;5095918;28;19973;-63
2022/02/12 12:58:17;;;;;;;;;;;20.20;32.70;;;;;;5095843;28;19939;-64
2022/02/12 13:00:42;;;;;;;;;;;20.20;32.70;;;;;;5077410;28;19998;-63
2022/02/12 13:03:08;;;;;;;;;;;20.20;32.60;;;;;;5095704;28;20272;-63
2022/02/12 13:05:33;;;;;;;;;;;20.10;32.70;;;;;;5095497;28;20398;-63
2022/02/12 13:08:00;;;;;;;;;;;20.10;32.70;;;;;;5094842;28;19908;-63
2022/02/12 13:10:27;;;;;;;;;;;20.20;32.70;;;;;;5095736;28;20007;-64
2022/02/12 13:12:53;;;;;;;;;;;20.10;32.70;;;;;;5095634;28;19933;-63
2022/02/12 13:15:24;;;;;;;;;;;20.10;32.60;;;;;;5095523;28;19914;-64
2022/02/12 13:17:54;;;;;;;;;;;20.10;32.60;;;;;;5095432;28;19908;-63
2022/02/12 13:20:20;;;;;;;;;;;20.10;32.70;;;;;;5095711;28;20032;-65
2022/02/12 13:22:56;;;;;;;;;;;20.10;32.70;;;;;;5095647;28;19916;-64
2022/02/12 13:25:23;;;;;;;;;;;20.10;32.60;;;;;;5095294;28;20390;-64
2022/02/12 13:27:49;;;;;;;;;;;20.00;32.70;;;;;;5095215;28;19961;-64
2022/02/12 13:30:15;;;;;;;;;;;20.10;32.70;;;;;;5095166;28;19912;-64
2022/02/12 13:32:44;;;;;;;;;;;20.10;32.50;;;;;;5095120;28;20363;-64
2022/02/12 13:35:11;;;;;;;;;;;20.00;32.70;;;;;;5095073;28;19912;-64
2022/02/12 13:37:38;;;;;;;;;;;20.00;32.70;;;;;;5095074;28;19908;-64
2022/02/12 13:40:04;;;;;;;;;;;20.00;32.70;;;;;;5076723;28;19908;-64
2022/02/12 13:42:30;;;;;;;;;;;20.00;32.70;;;;;;5094804;28;19916;-64
2022/02/12 13:44:59;;;;;;;;;;;20.00;32.70;;;;;;5094881;28;19908;-63
2022/02/12 13:47:25;;;;;;;;;;;20.00;32.70;;;;;;5094757;28;20396;-64
2022/02/12 13:49:51;;;;;;;;;;;20.00;32.70;;;;;;5076695;28;19916;-64
2022/02/12 13:52:20;;;;;;;;;;;20.00;32.70;;;;;;5094672;28;19956;-63
2022/02/12 13:54:59;;;;;;;;;;;20.00;32.70;;;;;;5076706;28;19912;-64
2022/02/12 13:57:24;;;;;;;;;;;20.00;32.60;;;;;;5094705;28;19912;-64
2022/02/12 13:59:50;;;;;;;;;;;20.00;32.50;;;;;;5076330;28;20007;-64
2022/02/12 14:02:15;;;;;;;;;;;20.00;32.70;;;;;;5094220;28;19931;-64
2022/02/12 14:04:40;;;;;;;;;;;20.00;32.60;;;;;;5094494;28;19999;-64
2022/02/12 14:07:06;;;;;;;;;;;20.00;32.60;;;;;;5094729;28;19998;-64
2022/02/12 14:09:31;;;;;;;;;;;20.00;32.70;;;;;;5094402;28;19978;-64
2022/02/12 14:11:57;;;;;;;;;;;20.00;32.70;;;;;;5076144;28;19916;-64
2022/02/12 14:14:23;;;;;;;;;;;20.00;32.50;;;;;;5094436;28;19908;-64
2022/02/12 14:16:48;;;;;;;;;;;20.00;32.60;;;;;;5094334;28;19947;-64
2022/02/12 14:19:14;;;;;;;;;;;20.00;32.60;;;;;;5094436;28;19919;-64
2022/02/12 14:21:39;;;;;;;;;;;20.00;32.60;;;;;;5094365;28;20069;-64